createdAt,value
2023-01-18T00:01:19.185Z,-1.10
2023-01-18T00:03:46.033Z,-1.10
2023-01-18T00:06:13.068Z,-1.10
2023-01-18T00:08:42.178Z,-1.10
2023-01-18T00:11:15.374Z,-1.30
2023-01-18T00:13:42.402Z,-1.30
2023-01-18T00:16:12.732Z,-1.30
2023-01-18T00:18:39.532Z,-1.40
2023-01-18T00:21:08.598Z,-1.40
2023-01-18T00:23:35.915Z,-1.30
2023-01-18T00:26:03.997Z,-1.30
2023-01-18T00:28:30.786Z,-1.40
2023-01-18T00:30:57.396Z,-1.40
2023-01-18T00:33:24.260Z,-1.40
2023-01-18T00:35:58.164Z,-1.60
2023-01-18T00:38:25.288Z,-1.60
2023-01-18T00:40:51.911Z,-1.60
2023-01-18T00:43:36.915Z,-1.60
2023-01-18T00:46:03.619Z,-1.60
2023-01-18T00:48:30.248Z,-1.70
2023-01-18T00:50:56.850Z,-1.80
2023-01-18T00:53:23.436Z,-1.70
2023-01-18T00:55:50.019Z,-1.80
2023-01-18T00:58:16.632Z,-1.80
2023-01-18T01:00:43.343Z,-2.00
2023-01-18T01:03:09.981Z,-1.90
2023-01-18T01:05:56.812Z,-1.80
2023-01-18T01:08:23.885Z,-1.90
2023-01-18T01:10:52.316Z,-1.80
2023-01-18T01:13:40.633Z,-1.90
2023-01-18T01:16:28.474Z,-2.00
2023-01-18T01:19:14.287Z,-2.00
2023-01-18T01:22:00.332Z,-2.10
2023-01-18T01:24:45.974Z,-2.10
2023-01-18T01:27:13.650Z,-2.00
2023-01-18T01:29:40.342Z,-2.00
2023-01-18T01:32:07.347Z,-2.10
2023-01-18T01:34:34.040Z,-2.10
2023-01-18T01:37:00.610Z,-2.10
2023-01-18T01:39:27.313Z,-2.10
2023-01-18T01:41:53.912Z,-2.10
2023-01-18T01:44:20.573Z,-2.10
2023-01-18T01:47:02.807Z,-2.10
2023-01-18T01:49:32.713Z,-2.20
2023-01-18T01:52:03.718Z,-2.20
2023-01-18T01:54:40.910Z,-2.20
2023-01-18T01:57:13.916Z,-2.20
2023-01-18T01:59:45.365Z,-2.20
2023-01-18T02:02:12.726Z,-2.20
2023-01-18T02:04:44.228Z,-2.30
2023-01-18T02:07:13.746Z,-2.30
2023-01-18T02:09:41.079Z,-2.40
2023-01-18T02:12:07.751Z,-2.30
2023-01-18T02:14:34.471Z,-2.40
2023-01-18T02:17:32.604Z,-2.30
2023-01-18T02:20:07.954Z,-2.40
2023-01-18T02:22:51.354Z,-2.40
2023-01-18T02:25:28.269Z,-2.30
2023-01-18T02:28:19.819Z,-2.20
2023-01-18T02:30:55.757Z,-2.20
2023-01-18T02:33:40.670Z,-2.20
2023-01-18T02:36:07.387Z,-2.10
2023-01-18T02:38:41.609Z,-2.20
2023-01-18T02:41:19.087Z,-2.20
2023-01-18T02:44:07.537Z,-2.30
2023-01-18T02:46:34.468Z,-2.30
2023-01-18T02:49:12.988Z,-2.30
2023-01-18T02:51:39.619Z,-2.30
2023-01-18T02:54:09.944Z,-2.40
2023-01-18T02:56:53.857Z,-2.40
2023-01-18T02:59:32.932Z,-2.30
2023-01-18T03:02:11.665Z,-2.50
2023-01-18T03:04:54.043Z,-2.50
2023-01-18T03:07:25.350Z,-2.60
2023-01-18T03:09:53.476Z,-2.60
2023-01-18T03:12:48.075Z,-2.60
2023-01-18T03:15:20.595Z,-2.50
2023-01-18T03:17:51.533Z,-2.50
2023-01-18T03:20:25.920Z,-2.40
2023-01-18T03:23:39.883Z,-2.40
2023-01-18T03:26:12.078Z,-2.40
2023-01-18T03:28:58.178Z,-2.40
2023-01-18T03:32:09.013Z,-2.40
2023-01-18T03:35:03.713Z,-2.50
2023-01-18T03:37:33.402Z,-2.50
2023-01-18T03:40:04.902Z,-2.50
2023-01-18T03:42:39.559Z,-2.30
2023-01-18T03:45:18.638Z,-2.20
2023-01-18T03:47:50.225Z,-2.20
2023-01-18T03:50:17.549Z,-2.20
2023-01-18T03:52:49.139Z,-2.10
2023-01-18T03:55:25.210Z,-2.20
2023-01-18T03:58:02.347Z,-2.20
2023-01-18T04:00:31.488Z,-2.20
2023-01-18T04:02:58.977Z,-2.30
2023-01-18T04:05:25.911Z,-2.30
2023-01-18T04:07:52.574Z,-2.30
2023-01-18T04:10:19.256Z,-2.30
2023-01-18T04:12:45.803Z,-2.50
2023-01-18T04:15:12.458Z,-2.50
2023-01-18T04:17:39.733Z,-2.50
2023-01-18T04:20:07.373Z,-2.60
2023-01-18T04:22:34.234Z,-2.70
2023-01-18T04:25:00.944Z,-2.70
2023-01-18T04:27:27.619Z,-2.60
2023-01-18T04:29:54.257Z,-2.60
2023-01-18T04:32:20.911Z,-2.50
2023-01-18T04:34:47.440Z,-2.50
2023-01-18T04:37:14.021Z,-2.60
2023-01-18T04:39:40.617Z,-2.60
2023-01-18T04:42:07.348Z,-2.60
2023-01-18T04:44:33.900Z,-2.70
2023-01-18T04:47:00.575Z,-2.80
2023-01-18T04:49:27.678Z,-2.80
2023-01-18T04:51:54.287Z,-2.90
2023-01-18T04:54:20.861Z,-2.90
2023-01-18T04:56:47.395Z,-2.80
2023-01-18T04:59:16.117Z,-2.90
2023-01-18T05:01:43.380Z,-2.80
2023-01-18T05:04:10.218Z,-2.80
2023-01-18T05:06:36.896Z,-2.90
2023-01-18T05:09:03.749Z,-2.90
2023-01-18T05:11:30.412Z,-2.90
2023-01-18T05:13:56.984Z,-3.00
2023-01-18T05:16:24.069Z,-2.90
2023-01-18T05:18:50.733Z,-2.80
2023-01-18T05:21:17.394Z,-2.80
2023-01-18T05:23:44.150Z,-2.70
2023-01-18T05:26:17.621Z,-2.80
2023-01-18T05:28:45.711Z,-2.80
2023-01-18T05:31:13.717Z,-2.70
2023-01-18T05:33:40.888Z,-2.70
2023-01-18T05:36:08.077Z,-2.70
2023-01-18T05:38:34.691Z,-2.70
2023-01-18T05:41:01.313Z,-2.70
2023-01-18T05:43:29.145Z,-2.70
2023-01-18T05:45:56.522Z,-2.70
2023-01-18T05:48:24.027Z,-2.60
2023-01-18T05:50:50.908Z,-2.60
2023-01-18T05:53:20.446Z,-2.60
2023-01-18T05:56:01.405Z,-2.70
2023-01-18T05:58:28.473Z,-2.80
2023-01-18T06:00:56.101Z,-2.90
2023-01-18T06:03:23.949Z,-2.80
2023-01-18T06:05:51.421Z,-2.80
2023-01-18T06:08:18.834Z,-2.70
2023-01-18T06:10:53.192Z,-2.80
2023-01-18T06:13:20.228Z,-2.70
2023-01-18T06:15:49.508Z,-2.70
2023-01-18T06:18:16.287Z,-2.70
2023-01-18T06:20:43.385Z,-2.70
2023-01-18T06:23:09.973Z,-2.70
2023-01-18T06:25:36.634Z,-2.80
2023-01-18T06:28:04.987Z,-2.70
2023-01-18T06:30:32.379Z,-2.80
2023-01-18T06:33:04.676Z,-2.70
2023-01-18T06:35:31.366Z,-2.60
2023-01-18T06:37:58.084Z,-2.70
2023-01-18T06:40:24.713Z,-2.70
2023-01-18T06:42:51.327Z,-2.60
2023-01-18T06:45:21.921Z,-2.60
2023-01-18T06:47:49.429Z,-2.70
2023-01-18T06:50:16.489Z,-2.60
2023-01-18T06:52:43.932Z,-2.60
2023-01-18T06:55:15.135Z,-2.70
2023-01-18T06:57:42.084Z,-2.70
2023-01-18T07:00:10.462Z,-2.70
2023-01-18T07:02:37.105Z,-2.60
2023-01-18T07:05:05.276Z,-2.60
2023-01-18T07:07:32.087Z,-2.60
2023-01-18T07:09:58.787Z,-2.70
2023-01-18T07:12:26.459Z,-2.70
2023-01-18T07:14:53.048Z,-2.70
2023-01-18T07:17:19.655Z,-2.80
2023-01-18T07:19:46.232Z,-2.80
2023-01-18T07:22:13.441Z,-2.80
2023-01-18T07:24:40.085Z,-2.80
2023-01-18T07:27:06.680Z,-2.80
2023-01-18T07:29:33.245Z,-2.80
2023-01-18T07:32:01.037Z,-2.80
2023-01-18T07:34:27.749Z,-2.80
2023-01-18T07:36:54.921Z,-2.80
2023-01-18T07:39:22.424Z,-2.70
2023-01-18T07:41:49.121Z,-2.70
2023-01-18T07:44:15.769Z,-2.70
2023-01-18T07:46:43.188Z,-2.70
2023-01-18T07:49:09.855Z,-2.70
2023-01-18T07:51:36.553Z,-2.60
2023-01-18T07:54:03.172Z,-2.60
2023-01-18T07:56:29.827Z,-2.50
2023-01-18T07:58:56.546Z,-2.40
2023-01-18T08:01:24.235Z,-2.30
2023-01-18T08:03:53.464Z,-2.20
2023-01-18T08:06:25.188Z,-2.20
2023-01-18T08:08:53.803Z,-2.20
2023-01-18T08:11:20.509Z,-2.10
2023-01-18T08:13:49.152Z,-2.10
2023-01-18T08:16:16.268Z,-2.10
2023-01-18T08:18:45.157Z,-2.00
2023-01-18T08:21:13.065Z,-2.00
2023-01-18T08:23:39.933Z,-2.00
2023-01-18T08:26:08.237Z,-2.00
2023-01-18T08:28:35.488Z,-2.10
2023-01-18T08:31:28.538Z,-2.00
2023-01-18T08:33:55.251Z,-1.90
2023-01-18T08:36:24.362Z,-1.90
2023-01-18T08:38:55.155Z,-1.80
2023-01-18T08:41:23.729Z,-1.60
2023-01-18T08:43:50.971Z,-1.60
2023-01-18T08:46:18.080Z,-1.50
2023-01-18T08:48:44.780Z,-1.50
2023-01-18T08:51:11.539Z,-1.50
2023-01-18T08:53:38.148Z,-1.40
2023-01-18T08:56:09.180Z,-1.30
2023-01-18T08:58:36.016Z,-1.30
2023-01-18T09:01:07.375Z,-1.20
2023-01-18T09:03:35.325Z,-1.20
2023-01-18T09:06:03.698Z,-1.10
2023-01-18T09:08:31.533Z,-1.00
2023-01-18T09:11:06.037Z,-1.00
2023-01-18T09:13:33.434Z,-1.00
2023-01-18T09:16:05.386Z,-0.90
2023-01-18T09:18:32.144Z,-0.80
2023-01-18T09:20:59.171Z,-0.70
2023-01-18T09:23:26.016Z,-0.60
2023-01-18T09:26:08.672Z,-0.50
2023-01-18T09:28:35.969Z,-0.30
2023-01-18T09:31:05.000Z,-0.20
2023-01-18T09:33:37.589Z,0.00
2023-01-18T09:36:09.559Z,0.10
2023-01-18T09:38:37.641Z,0.20
2023-01-18T09:41:33.470Z,0.30
2023-01-18T09:44:33.577Z,0.40
2023-01-18T09:47:24.005Z,0.50
2023-01-18T09:49:56.364Z,0.60
2023-01-18T09:52:52.088Z,0.80
2023-01-18T09:55:42.237Z,0.80
2023-01-18T09:58:33.439Z,0.90
2023-01-18T10:01:19.709Z,1.00
2023-01-18T10:03:54.954Z,1.10
2023-01-18T10:06:28.378Z,1.20
2023-01-18T10:09:04.269Z,1.40
2023-01-18T10:11:45.758Z,1.50
2023-01-18T10:14:22.203Z,1.60
2023-01-18T10:17:02.966Z,1.70
2023-01-18T10:19:32.144Z,1.70
2023-01-18T10:22:32.741Z,1.80
2023-01-18T10:25:37.918Z,1.70
2023-01-18T10:28:28.466Z,1.80
2023-01-18T10:31:32.317Z,1.90
2023-01-18T10:34:01.051Z,1.90
2023-01-18T10:36:36.114Z,1.80
2023-01-18T10:39:12.830Z,1.90
2023-01-18T10:41:41.068Z,2.10
2023-01-18T10:44:09.178Z,2.00
2023-01-18T10:46:35.959Z,2.00
2023-01-18T10:49:02.985Z,2.20
2023-01-18T10:51:37.438Z,2.20
2023-01-18T10:54:23.386Z,2.40
2023-01-18T10:57:00.447Z,2.50
2023-01-18T10:59:40.655Z,2.50
2023-01-18T11:02:29.685Z,2.50
2023-01-18T11:05:04.052Z,2.60
2023-01-18T11:07:30.818Z,2.60
2023-01-18T11:10:01.459Z,2.70
2023-01-18T11:12:51.998Z,2.90
2023-01-18T11:15:18.968Z,2.80
2023-01-18T11:17:56.184Z,2.70
2023-01-18T11:20:33.864Z,2.60
2023-01-18T11:23:04.323Z,2.50
2023-01-18T11:25:50.586Z,2.50
2023-01-18T11:28:36.226Z,2.70
2023-01-18T11:31:15.149Z,2.80
2023-01-18T11:33:49.562Z,3.00
2023-01-18T11:36:17.397Z,3.00
2023-01-18T11:38:44.008Z,3.00
2023-01-18T11:41:21.274Z,3.00
2023-01-18T11:44:18.590Z,3.00
2023-01-18T11:46:52.737Z,3.00
2023-01-18T11:49:37.702Z,3.00
2023-01-18T11:52:17.424Z,2.80
2023-01-18T11:54:53.310Z,2.70
2023-01-18T11:57:20.117Z,2.60
2023-01-18T11:59:49.012Z,2.80
2023-01-18T12:02:38.424Z,2.70
2023-01-18T12:05:45.030Z,2.80
2023-01-18T12:08:46.589Z,2.60
2023-01-18T12:11:33.676Z,2.80
2023-01-18T12:14:21.679Z,2.80
2023-01-18T12:17:19.077Z,2.90
2023-01-18T12:20:09.911Z,3.00
2023-01-18T12:22:48.314Z,3.00
2023-01-18T12:25:47.003Z,3.00
2023-01-18T12:28:42.455Z,3.00
2023-01-18T12:31:20.812Z,3.20
2023-01-18T12:34:14.681Z,3.30
2023-01-18T12:37:31.497Z,3.10
2023-01-18T12:40:24.355Z,3.10
2023-01-18T12:43:17.448Z,3.00
2023-01-18T12:46:09.476Z,2.90
2023-01-18T12:48:48.833Z,2.90
2023-01-18T12:51:19.446Z,2.90
2023-01-18T12:53:55.490Z,2.80
2023-01-18T12:56:45.260Z,2.80
2023-01-18T12:59:18.404Z,2.90
2023-01-18T13:01:51.826Z,2.90
2023-01-18T13:04:41.959Z,2.90
2023-01-18T13:07:14.328Z,2.90
2023-01-18T13:09:46.166Z,3.00
2023-01-18T13:12:13.451Z,3.30
2023-01-18T13:14:52.387Z,3.40
2023-01-18T13:17:55.895Z,3.30
2023-01-18T13:21:00.548Z,3.40
2023-01-18T13:23:32.558Z,3.20
2023-01-18T13:26:02.170Z,3.10
2023-01-18T13:28:28.953Z,3.10
2023-01-18T13:31:01.731Z,3.00
2023-01-18T13:33:34.696Z,3.00
2023-01-18T13:36:11.341Z,3.00
2023-01-18T13:39:01.112Z,3.10
2023-01-18T13:41:30.224Z,3.10
2023-01-18T13:44:03.036Z,3.10
2023-01-18T13:46:33.885Z,3.20
2023-01-18T13:49:35.809Z,3.10
2023-01-18T13:52:33.821Z,3.10
2023-01-18T13:55:05.140Z,3.10
2023-01-18T13:57:33.420Z,3.20
2023-01-18T14:00:02.166Z,3.20
2023-01-18T14:02:50.206Z,3.20
2023-01-18T14:05:38.784Z,3.20
2023-01-18T14:08:06.168Z,3.20
2023-01-18T14:10:46.585Z,3.10
2023-01-18T14:13:17.653Z,3.10
2023-01-18T14:15:50.906Z,3.10
2023-01-18T14:18:27.838Z,3.00
2023-01-18T14:21:14.219Z,3.00
2023-01-18T14:24:06.049Z,2.90
2023-01-18T14:26:35.538Z,2.80
2023-01-18T14:29:11.194Z,2.70
2023-01-18T14:32:00.208Z,2.60
2023-01-18T14:34:29.986Z,2.60
2023-01-18T14:36:57.503Z,2.60
2023-01-18T14:39:24.194Z,2.50
2023-01-18T14:41:57.168Z,2.40
2023-01-18T14:44:57.724Z,2.40
2023-01-18T14:47:30.116Z,2.30
2023-01-18T14:49:57.362Z,2.30
2023-01-18T14:52:28.365Z,2.20
2023-01-18T14:54:55.875Z,2.10
2023-01-18T14:57:23.738Z,2.10
2023-01-18T15:00:08.392Z,2.10
2023-01-18T15:02:38.289Z,2.10
2023-01-18T15:05:17.079Z,2.10
2023-01-18T15:07:47.766Z,2.00
2023-01-18T15:10:18.560Z,2.00
2023-01-18T15:12:49.280Z,1.90
2023-01-18T15:15:36.939Z,1.90
2023-01-18T15:18:10.741Z,1.80
2023-01-18T15:21:02.739Z,1.80
2023-01-18T15:23:30.177Z,1.70
2023-01-18T15:25:58.190Z,1.70
2023-01-18T15:28:31.334Z,1.70
2023-01-18T15:30:58.090Z,1.60
2023-01-18T15:33:26.926Z,1.50
2023-01-18T15:36:00.520Z,1.50
2023-01-18T15:38:27.964Z,1.50
2023-01-18T15:41:00.096Z,1.40
2023-01-18T15:43:32.854Z,1.30
2023-01-18T15:45:59.774Z,1.30
2023-01-18T15:48:30.059Z,1.30
2023-01-18T15:51:04.362Z,1.30
2023-01-18T15:53:34.326Z,1.30
2023-01-18T15:56:03.312Z,1.30
2023-01-18T15:58:42.712Z,1.30
2023-01-18T16:01:22.071Z,1.30
2023-01-18T16:03:48.680Z,1.30
2023-01-18T16:06:32.166Z,1.30
2023-01-18T16:09:12.799Z,1.20
2023-01-18T16:11:46.439Z,1.10
2023-01-18T16:14:27.608Z,1.00
2023-01-18T16:17:15.749Z,0.80
2023-01-18T16:19:45.402Z,0.80
2023-01-18T16:22:21.298Z,0.80
2023-01-18T16:25:01.290Z,0.70
2023-01-18T16:27:31.020Z,0.70
2023-01-18T16:29:59.858Z,0.60
2023-01-18T16:32:29.292Z,0.60
2023-01-18T16:35:02.811Z,0.60
2023-01-18T16:37:30.532Z,0.70
2023-01-18T16:39:57.189Z,0.70
2023-01-18T16:42:36.916Z,0.70
2023-01-18T16:45:04.960Z,0.70
2023-01-18T16:47:31.579Z,0.80
2023-01-18T16:49:59.173Z,0.90
2023-01-18T16:52:26.191Z,1.00
2023-01-18T16:54:52.758Z,0.90
2023-01-18T16:57:22.194Z,0.90
2023-01-18T16:59:49.496Z,0.90
2023-01-18T17:02:16.279Z,0.90
2023-01-18T17:04:44.782Z,1.00
2023-01-18T17:07:11.453Z,1.00
2023-01-18T17:09:47.883Z,0.90
2023-01-18T17:12:15.413Z,0.80
2023-01-18T17:14:42.018Z,0.70
2023-01-18T17:17:09.915Z,0.70
2023-01-18T17:19:37.680Z,0.70
2023-01-18T17:22:04.764Z,0.70
2023-01-18T17:24:31.363Z,0.60
2023-01-18T17:26:58.120Z,0.70
2023-01-18T17:29:24.844Z,0.70
2023-01-18T17:31:53.027Z,0.70
2023-01-18T17:34:28.062Z,0.70
2023-01-18T17:36:55.946Z,0.70
2023-01-18T17:39:23.017Z,0.70
2023-01-18T17:41:51.298Z,0.70
2023-01-18T17:44:20.585Z,0.60
2023-01-18T17:46:50.815Z,0.60
2023-01-18T17:49:17.444Z,0.50
2023-01-18T17:51:43.978Z,0.40
2023-01-18T17:54:16.759Z,0.40
2023-01-18T17:56:47.249Z,0.40
2023-01-18T17:59:13.836Z,0.40
2023-01-18T18:01:40.564Z,0.40
2023-01-18T18:04:07.446Z,0.40
2023-01-18T18:06:36.304Z,0.30
2023-01-18T18:09:04.247Z,0.30
2023-01-18T18:11:31.050Z,0.30
2023-01-18T18:13:58.831Z,0.30
2023-01-18T18:16:25.911Z,0.20
2023-01-18T18:18:53.215Z,0.20
2023-01-18T18:21:19.911Z,0.30
2023-01-18T18:23:46.554Z,0.30
2023-01-18T18:26:13.167Z,0.20
2023-01-18T18:28:39.710Z,0.20
2023-01-18T18:31:06.382Z,0.20
2023-01-18T18:33:33.953Z,0.10
2023-01-18T18:36:01.310Z,0.10
2023-01-18T18:38:27.904Z,0.00
2023-01-18T18:41:01.809Z,-0.10
2023-01-18T18:43:28.590Z,-0.10
2023-01-18T18:45:55.161Z,0.00
2023-01-18T18:48:21.819Z,0.10
2023-01-18T18:50:51.698Z,0.10
2023-01-18T18:53:21.416Z,0.10
2023-01-18T18:55:50.459Z,0.30
2023-01-18T18:58:17.126Z,0.30
2023-01-18T19:00:44.998Z,0.20
2023-01-18T19:03:11.663Z,0.20
2023-01-18T19:05:39.347Z,0.20
2023-01-18T19:08:05.935Z,0.20
2023-01-18T19:10:32.737Z,0.20
2023-01-18T19:13:00.060Z,0.20
2023-01-18T19:15:27.030Z,0.20
2023-01-18T19:17:53.689Z,0.40
2023-01-18T19:20:20.580Z,0.40
2023-01-18T19:22:48.144Z,0.40
2023-01-18T19:25:15.611Z,0.60
2023-01-18T19:27:42.611Z,0.70
2023-01-18T19:30:18.433Z,0.70
2023-01-18T19:32:50.651Z,0.70
2023-01-18T19:35:17.872Z,0.70
2023-01-18T19:37:45.406Z,0.80
2023-01-18T19:40:13.469Z,0.80
2023-01-18T19:42:40.421Z,0.90
2023-01-18T19:45:09.665Z,0.90
2023-01-18T19:47:37.055Z,0.90
2023-01-18T19:50:04.172Z,0.80
2023-01-18T19:52:31.677Z,0.80
2023-01-18T19:54:58.882Z,0.80
2023-01-18T19:57:26.800Z,0.80
2023-01-18T19:59:53.449Z,0.90
2023-01-18T20:02:22.049Z,0.90
2023-01-18T20:04:49.390Z,0.90
2023-01-18T20:07:16.681Z,0.90
2023-01-18T20:09:43.850Z,0.80
2023-01-18T20:12:13.268Z,0.90
2023-01-18T20:14:44.777Z,0.90
2023-01-18T20:17:14.271Z,0.90
2023-01-18T20:19:41.827Z,1.00
2023-01-18T20:22:08.892Z,1.00
2023-01-18T20:24:35.578Z,1.00
2023-01-18T20:27:15.298Z,1.00
2023-01-18T20:29:43.822Z,1.00
2023-01-18T20:32:16.188Z,1.00
2023-01-18T20:34:46.578Z,1.00
2023-01-18T20:37:14.418Z,1.00
2023-01-18T20:39:41.201Z,0.90
2023-01-18T20:42:08.236Z,1.00
2023-01-18T20:44:34.936Z,0.90
2023-01-18T20:47:02.144Z,0.80
2023-01-18T20:49:43.992Z,0.80
2023-01-18T20:52:10.747Z,0.80
2023-01-18T20:54:37.695Z,0.70
2023-01-18T20:57:07.465Z,0.80
2023-01-18T20:59:34.378Z,0.90
2023-01-18T21:02:01.670Z,0.90
2023-01-18T21:04:28.757Z,0.90
2023-01-18T21:06:57.272Z,1.00
2023-01-18T21:09:24.893Z,1.00
2023-01-18T21:11:52.207Z,1.00
2023-01-18T21:14:24.767Z,0.90
2023-01-18T21:16:51.973Z,0.90
2023-01-18T21:19:18.677Z,1.00
2023-01-18T21:21:48.378Z,1.00
2023-01-18T21:24:15.211Z,1.00
2023-01-18T21:26:42.043Z,1.10
2023-01-18T21:29:13.837Z,1.10
2023-01-18T21:31:41.188Z,1.10
2023-01-18T21:34:53.487Z,1.10
2023-01-18T21:37:29.069Z,1.20
2023-01-18T21:39:58.076Z,1.10
2023-01-18T21:42:46.063Z,1.10
2023-01-18T21:45:32.128Z,1.10
2023-01-18T21:47:59.873Z,1.20
2023-01-18T21:50:45.338Z,1.20
2023-01-18T21:53:34.098Z,1.20
2023-01-18T21:56:00.979Z,1.20
2023-01-18T21:58:46.485Z,1.20
2023-01-18T22:01:16.537Z,1.20
2023-01-18T22:03:43.306Z,1.30
2023-01-18T22:06:09.879Z,1.30
2023-01-18T22:08:36.430Z,1.30
2023-01-18T22:11:03.026Z,1.20
2023-01-18T22:13:29.598Z,1.20
2023-01-18T22:15:56.583Z,1.30
2023-01-18T22:18:23.294Z,1.20
2023-01-18T22:20:59.110Z,1.20
2023-01-18T22:23:25.668Z,1.20
2023-01-18T22:25:55.979Z,1.30
2023-01-18T22:28:22.598Z,1.30
2023-01-18T22:30:49.322Z,1.30
2023-01-18T22:33:15.972Z,1.30
2023-01-18T22:35:42.618Z,1.20
2023-01-18T22:38:11.014Z,1.30
2023-01-18T22:40:37.863Z,1.40
2023-01-18T22:43:04.491Z,1.30
2023-01-18T22:45:31.071Z,1.40
2023-01-18T22:47:58.048Z,1.40
2023-01-18T22:50:24.830Z,1.40
2023-01-18T22:52:51.390Z,1.40
2023-01-18T22:55:18.172Z,1.40
2023-01-18T22:57:44.769Z,1.30
2023-01-18T23:00:12.050Z,1.30
2023-01-18T23:02:38.630Z,1.30
2023-01-18T23:05:05.678Z,1.30
2023-01-18T23:07:32.380Z,1.30
2023-01-18T23:09:58.963Z,1.20
2023-01-18T23:12:25.674Z,1.20
2023-01-18T23:15:11.217Z,1.30
2023-01-18T23:17:42.118Z,1.30
2023-01-18T23:20:15.894Z,1.30
2023-01-18T23:22:42.586Z,1.30
2023-01-18T23:25:09.546Z,1.30
2023-01-18T23:27:36.182Z,1.30
2023-01-18T23:30:03.096Z,1.20
2023-01-18T23:32:32.438Z,1.20
2023-01-18T23:34:59.585Z,1.20
2023-01-18T23:37:27.163Z,1.20
2023-01-18T23:40:12.626Z,1.10
2023-01-18T23:42:58.023Z,1.20
2023-01-18T23:45:43.356Z,1.20
2023-01-18T23:48:31.697Z,1.20
2023-01-18T23:51:17.090Z,1.20
2023-01-18T23:54:02.516Z,1.20
2023-01-18T23:56:29.360Z,1.20
2023-01-18T23:58:56.610Z,1.20
